Time;durP1;ratioP1;P1;durP2;ratioP2;P2;SDS_P1;SDS_P2;PMS_P1;PMS_P2;Temp;Humidity;BMP_temperature;BMP_pressure;BME280_temperature;BME280_humidity;BME280_pressure;Samples;Min_cycle;Max_cycle;Signal;HPM_P1;HPM_P2
2021/04/01 00:01:57;;;;;;;2.57;1.57;;;;;;;9.25;78.26;101162.72;5056698;28;20446;-65
2021/04/01 00:04:23;;;;;;;3.50;1.97;;;;;;;9.27;78.39;101155.13;5062850;28;20445;-65
2021/04/01 00:06:49;;;;;;;1.70;1.60;;;;;;;9.30;78.19;101160.00;5075152;28;20457;-65
2021/04/01 00:09:15;;;;;;;9.83;3.03;;;;;;;9.34;77.87;101147.53;5068673;28;20923;-65
2021/04/01 00:11:41;;;;;;;6.20;1.17;;;;;;;9.39;77.86;101151.31;5071178;28;20449;-65
2021/04/01 00:14:07;;;;;;;2.13;0.60;;;;;;;9.40;77.49;101147.50;5073503;28;20445;-65
2021/04/01 00:16:35;;;;;;;1.50;1.40;;;;;;;9.42;77.09;101148.81;5068802;28;20470;-65
2021/04/01 00:19:01;;;;;;;2.60;1.60;;;;;;;9.43;76.73;101141.53;5062295;28;20441;-66
2021/04/01 00:21:28;;;;;;;2.27;2.07;;;;;;;9.40;76.45;101140.19;5068161;28;20448;-65
2021/04/01 00:23:54;;;;;;;1.20;0.80;;;;;;;9.32;75.89;101143.47;5071166;28;20482;-66
2021/04/01 00:26:20;;;;;;;1.50;1.40;;;;;;;9.35;75.57;101140.22;5054884;28;20592;-65
2021/04/01 00:28:47;;;;;;;2.00;1.57;;;;;;;9.34;74.98;101144.84;5095913;22;20883;-69
2021/04/01 00:31:13;;;;;;;4.00;1.90;;;;;;;9.30;75.11;101140.25;5092919;28;20451;-69
2021/04/01 00:33:39;;;;;;;0.90;0.90;;;;;;;9.28;74.62;101143.22;5094728;28;20436;-68
2021/04/01 00:36:05;;;;;;;3.80;1.77;;;;;;;9.22;74.12;101132.72;5072462;28;20812;-69
2021/04/01 00:38:33;;;;;;;1.70;1.23;;;;;;;9.20;74.08;101132.19;5075014;28;20461;-69
2021/04/01 00:40:59;;;;;;;1.43;1.00;;;;;;;9.14;74.56;101139.53;5073853;28;20462;-69
2021/04/01 00:43:25;;;;;;;0.80;0.80;;;;;;;9.09;75.09;101126.03;5074112;28;20857;-69
2021/04/01 00:45:52;;;;;;;1.70;0.97;;;;;;;9.06;76.73;101132.78;5073939;28;20452;-69
2021/04/01 00:48:18;;;;;;;2.67;1.13;;;;;;;9.07;77.71;101137.13;5074228;28;20837;-69
2021/04/01 00:50:44;;;;;;;1.27;0.60;;;;;;;9.03;78.38;101125.25;5074193;28;20471;-69
2021/04/01 00:53:10;;;;;;;2.23;2.03;;;;;;;8.98;78.64;101117.16;5074558;28;20468;-69
2021/04/01 00:55:37;;;;;;;1.77;1.57;;;;;;;9.01;78.80;101119.31;5074232;28;20450;-69
2021/04/01 00:58:04;;;;;;;1.30;0.80;;;;;;;9.05;78.41;101120.38;5073995;28;20467;-69
2021/04/01 01:00:32;;;;;;;2.93;1.93;;;;;;;9.04;78.52;101112.56;5073933;28;20453;-69
2021/04/01 01:02:59;;;;;;;2.73;2.40;;;;;;;9.03;78.72;101102.81;5073505;28;21352;-69
2021/04/01 01:05:26;;;;;;;1.60;1.50;;;;;;;8.97;78.77;101109.34;5073482;28;20446;-69
2021/04/01 01:07:52;;;;;;;2.70;1.00;;;;;;;8.93;79.34;101113.66;5074111;28;20465;-70
2021/04/01 01:10:21;;;;;;;3.53;0.73;;;;;;;8.92;78.92;101114.75;5073892;28;20457;-69
2021/04/01 01:12:48;;;;;;;1.30;1.20;;;;;;;8.86;78.53;101110.47;5074080;28;20498;-70
2021/04/01 01:15:15;;;;;;;0.57;0.57;;;;;;;8.80;77.36;101102.38;5073509;28;20453;-70
2021/04/01 01:17:41;;;;;;;1.30;1.20;;;;;;;8.74;76.81;101108.88;5073722;28;20473;-69
2021/04/01 01:20:10;;;;;;;1.07;0.90;;;;;;;8.74;76.25;101110.78;5074170;28;20476;-70
2021/04/01 01:22:37;;;;;;;2.60;1.50;;;;;;;8.67;76.52;101110.25;5073594;28;20501;-69
2021/04/01 01:25:08;;;;;;;2.70;2.00;;;;;;;8.61;77.25;101097.84;5073079;28;20970;-69
2021/04/01 01:27:35;;;;;;;4.10;1.80;;;;;;;8.51;77.51;101099.50;5073415;28;20473;-69
2021/04/01 01:30:01;;;;;;;1.27;0.83;;;;;;;8.49;77.20;101095.44;5073367;28;20438;-68
2021/04/01 01:32:35;;;;;;;5.50;1.93;;;;;;;8.46;76.97;101101.41;5055305;28;20438;-69
2021/04/01 01:35:02;;;;;;;2.40;1.93;;;;;;;8.40;78.13;101092.50;5073273;28;20479;-69
2021/04/01 01:37:28;;;;;;;3.10;1.93;;;;;;;8.34;79.49;101088.19;5073572;28;20579;-69
2021/04/01 01:39:54;;;;;;;2.63;1.03;;;;;;;8.19;81.33;101089.03;5073310;28;20471;-69
2021/04/01 01:42:21;;;;;;;2.10;1.80;;;;;;;8.20;81.86;101087.13;5073373;28;20452;-69
2021/04/01 01:44:46;;;;;;;1.83;0.97;;;;;;;8.27;81.51;101083.06;5073214;28;20460;-70
2021/04/01 01:47:12;;;;;;;1.60;1.10;;;;;;;8.32;81.46;101083.06;5073027;28;20437;-70
2021/04/01 01:49:39;;;;;;;1.00;0.90;;;;;;;8.36;81.18;101080.59;5072776;28;20445;-69
2021/04/01 01:52:06;;;;;;;1.50;0.80;;;;;;;8.31;81.85;101084.13;5073140;28;20442;-69
2021/04/01 01:54:32;;;;;;;1.17;1.07;;;;;;;8.31;82.21;101084.13;5072917;28;20453;-69
2021/04/01 01:56:58;;;;;;;1.50;0.97;;;;;;;8.35;81.71;101090.59;5073063;28;20448;-69
2021/04/01 01:59:25;;;;;;;3.33;2.47;;;;;;;8.44;82.07;101084.69;5072841;28;20469;-69
2021/04/01 02:01:51;;;;;;;2.10;0.93;;;;;;;8.46;81.59;101083.31;5072806;28;20460;-69
2021/04/01 02:04:17;;;;;;;1.47;0.60;;;;;;;8.49;81.67;101090.06;5072830;28;20509;-69
2021/04/01 02:06:44;;;;;;;1.30;1.20;;;;;;;8.40;82.15;101079.00;5073150;28;20970;-69
2021/04/01 02:09:10;;;;;;;0.43;0.40;;;;;;;8.49;80.76;101071.16;5073173;28;20457;-69
2021/04/01 02:11:36;;;;;;;1.90;1.20;;;;;;;8.56;79.54;101074.38;5072877;28;20450;-68
2021/04/01 02:14:02;;;;;;;2.17;1.47;;;;;;;8.53;78.59;101074.94;5072497;28;20495;-69
2021/04/01 02:16:29;;;;;;;1.27;1.03;;;;;;;8.59;78.51;101065.75;5072576;28;20950;-69
2021/04/01 02:18:55;;;;;;;1.70;0.80;;;;;;;8.59;77.85;101068.44;5072832;28;20465;-68
2021/04/01 02:21:23;;;;;;;3.67;2.10;;;;;;;8.63;77.79;101077.59;5072758;28;20446;-69
2021/04/01 02:23:49;;;;;;;1.00;0.83;;;;;;;8.64;77.89;101073.81;5072723;28;20994;-69
2021/04/01 02:26:14;;;;;;;1.20;0.70;;;;;;;8.58;78.18;101070.31;5072704;28;20444;-69
2021/04/01 02:28:41;;;;;;;1.17;1.10;;;;;;;8.54;78.79;101065.72;5072673;28;20477;-69
2021/04/01 02:31:09;;;;;;;1.20;1.10;;;;;;;8.58;79.31;101074.91;5072776;28;20506;-68
2021/04/01 02:33:37;;;;;;;2.00;1.10;;;;;;;8.61;80.91;101077.06;5072696;28;20449;-69
2021/04/01 02:36:06;;;;;;;1.07;0.77;;;;;;;8.71;80.58;101077.00;5072379;28;20977;-68
2021/04/01 02:38:32;;;;;;;1.40;0.90;;;;;;;8.76;80.97;101074.28;5072729;28;20515;-68
2021/04/01 02:40:58;;;;;;;2.53;1.00;;;;;;;8.81;80.65;101082.41;5072413;28;20446;-69
2021/04/01 02:43:30;;;;;;;2.60;1.47;;;;;;;8.74;81.51;101087.28;5072536;28;20493;-69
2021/04/01 02:45:57;;;;;;;4.83;3.30;;;;;;;8.74;81.54;101081.06;5075882;28;20930;-68
2021/04/01 02:48:23;;;;;;;1.23;1.10;;;;;;;8.74;81.67;101075.66;5076240;28;20457;-68
2021/04/01 02:50:50;;;;;;;3.23;2.53;;;;;;;8.80;81.79;101069.16;5076371;28;20450;-69
2021/04/01 02:53:15;;;;;;;1.57;1.47;;;;;;;8.93;81.74;101081.25;5075887;28;20442;-68
2021/04/01 02:55:41;;;;;;;4.60;2.10;;;;;;;8.99;81.22;101080.16;5076234;28;20992;-69
2021/04/01 02:58:07;;;;;;;3.37;1.53;;;;;;;8.93;81.11;101073.94;5076657;28;21017;-69
2021/04/01 03:00:35;;;;;;;2.80;1.93;;;;;;;9.03;80.76;101063.13;5075801;28;20506;-68
2021/04/01 03:03:04;;;;;;;8.10;1.63;;;;;;;9.13;80.83;101062.25;5075024;28;20499;-68
2021/04/01 03:05:30;;;;;;;1.00;0.50;;;;;;;9.18;81.05;101070.31;5076546;28;20482;-69
2021/04/01 03:07:57;;;;;;;0.90;0.90;;;;;;;9.15;80.31;101062.75;5076173;28;20469;-69
2021/04/01 03:10:23;;;;;;;0.70;0.70;;;;;;;9.11;78.68;101067.09;5075609;28;20449;-68
2021/04/01 03:12:49;;;;;;;2.93;1.27;;;;;;;9.07;77.99;101068.75;5076274;28;20437;-69
2021/04/01 03:15:16;;;;;;;1.20;0.97;;;;;;;8.95;77.92;101060.19;5075775;28;20449;-69
2021/04/01 03:17:42;;;;;;;2.53;0.83;;;;;;;8.93;77.87;101059.63;5076144;28;20456;-69
2021/04/01 03:20:10;;;;;;;1.40;1.30;;;;;;;8.92;77.88;101063.44;5075838;28;20445;-69
2021/04/01 03:22:37;;;;;;;0.60;0.60;;;;;;;8.88;78.13;101063.16;5076055;28;20494;-69
2021/04/01 03:25:05;;;;;;;1.70;1.30;;;;;;;8.84;78.69;101067.50;5075170;28;20445;-69
2021/04/01 03:27:32;;;;;;;4.73;2.33;;;;;;;8.86;78.89;101068.06;5075822;28;20496;-69
2021/04/01 03:30:05;;;;;;;4.20;1.63;;;;;;;8.85;79.77;101058.31;5075435;28;20438;-69
2021/04/01 03:32:31;;;;;;;2.67;1.17;;;;;;;8.88;80.34;101055.06;5075935;28;20425;-69
2021/04/01 03:34:58;;;;;;;1.73;1.33;;;;;;;8.93;80.68;101046.94;5074933;28;20441;-69
2021/04/01 03:37:24;;;;;;;2.00;1.57;;;;;;;8.87;81.53;101042.66;5075373;28;20472;-69
2021/04/01 03:39:50;;;;;;;0.93;0.93;;;;;;;8.83;82.13;101045.09;5075540;28;20812;-69
2021/04/01 03:42:17;;;;;;;0.97;0.87;;;;;;;8.85;82.20;101050.22;5075605;28;20471;-69
2021/04/01 03:44:43;;;;;;;2.67;0.60;;;;;;;8.84;82.46;101048.59;5075683;28;20543;-69
2021/04/01 03:47:09;;;;;;;1.43;1.20;;;;;;;8.90;82.67;101057.47;5075386;28;20452;-69
2021/04/01 03:49:35;;;;;;;5.47;3.17;;;;;;;8.95;82.80;101058.28;5075372;28;20946;-69
2021/04/01 03:52:01;;;;;;;2.50;1.70;;;;;;;9.00;82.43;101068.25;5075530;28;20950;-68
2021/04/01 03:54:27;;;;;;;3.30;1.97;;;;;;;9.02;82.36;101063.38;5075184;28;20445;-69
2021/04/01 03:56:53;;;;;;;2.30;1.80;;;;;;;9.08;82.23;101062.28;5074222;28;20976;-69
2021/04/01 03:59:22;;;;;;;8.07;1.80;;;;;;;9.10;82.24;101057.38;5074848;28;20465;-69
2021/04/01 04:02:01;;;;;;;1.20;1.20;;;;;;;9.09;81.19;101067.38;5074310;28;20893;-69
2021/04/01 04:10:17;;;;;;;1.03;0.83;;;;;;;9.04;79.52;101045.81;5075211;28;20441;-68
2021/04/01 04:12:57;;;;;;;0.90;0.90;;;;;;;9.06;78.24;101050.91;5075040;28;20491;-68
2021/04/01 04:15:24;;;;;;;0.80;0.73;;;;;;;9.06;77.83;101045.50;5068896;28;20442;-68
2021/04/01 04:17:50;;;;;;;16.23;2.97;;;;;;;9.05;78.16;101049.31;5075086;28;20472;-68
2021/04/01 04:20:17;;;;;;;1.20;0.80;;;;;;;9.01;79.17;101048.25;5074756;28;20437;-68
2021/04/01 04:22:43;;;;;;;2.70;0.93;;;;;;;9.04;78.73;101045.81;5075004;28;20507;-68
2021/04/01 04:25:12;;;;;;;2.57;1.47;;;;;;;9.00;79.81;101043.94;5074963;28;20472;-68
2021/04/01 04:30:29;;;;;;;1.43;1.37;;;;;;;9.10;81.12;101043.88;5047066;28;20445;-68
2021/04/01 04:32:55;;;;;;;0.73;0.67;;;;;;;9.23;81.18;101035.13;5074463;28;20446;-72
2021/04/01 04:35:22;;;;;;;2.17;1.23;;;;;;;9.23;81.21;101039.75;5074168;28;20473;-72
2021/04/01 04:37:48;;;;;;;1.07;1.07;;;;;;;9.28;81.55;101034.28;5074189;28;20457;-71
2021/04/01 04:40:15;;;;;;;1.30;1.23;;;;;;;9.31;81.59;101034.53;5073366;28;20455;-69
2021/04/01 04:42:41;;;;;;;5.10;1.90;;;;;;;9.35;81.82;101019.38;5074688;28;20485;-74
2021/04/01 04:45:08;;;;;;;2.13;0.97;;;;;;;9.46;82.42;101025.50;5074623;28;20444;-74
2021/04/01 04:47:35;;;;;;;2.27;1.93;;;;;;;9.50;82.24;101023.06;5074353;28;20661;-74
2021/04/01 04:50:01;;;;;;;1.30;0.90;;;;;;;9.48;82.54;101027.94;5074539;28;20441;-74
2021/04/01 04:52:28;;;;;;;3.93;1.63;;;;;;;9.49;82.13;101033.06;5074558;28;20494;-73
2021/04/01 04:54:54;;;;;;;7.30;0.83;;;;;;;9.51;81.64;101030.88;5074152;28;20934;-72
2021/04/01 04:57:23;;;;;;;2.53;1.13;;;;;;;9.54;81.20;101026.81;5074406;28;20480;-73
2021/04/01 05:00:11;;;;;;;1.10;0.97;;;;;;;9.52;80.98;101029.81;5074183;28;20444;-73
2021/04/01 05:05:23;;;;;;;3.30;1.67;;;;;;;9.63;80.21;101038.63;5074141;28;20552;-69
2021/04/01 05:07:49;;;;;;;1.90;1.03;;;;;;;9.70;79.11;101046.44;5074082;28;20536;-69
2021/04/01 05:10:15;;;;;;;2.80;1.47;;;;;;;9.72;78.26;101042.34;5073740;28;20445;-69
2021/04/01 05:12:41;;;;;;;10.90;2.63;;;;;;;9.68;77.95;101046.69;5074238;28;20441;-69
2021/04/01 05:15:09;;;;;;;0.93;0.70;;;;;;;9.66;78.41;101045.38;5073773;28;20939;-69
2021/04/01 05:17:35;;;;;;;1.53;0.90;;;;;;;9.74;79.67;101047.44;5073543;28;20991;-69
2021/04/01 05:20:04;;;;;;;1.40;1.20;;;;;;;9.76;80.97;101048.78;5073585;28;20450;-69
2021/04/01 05:22:36;;;;;;;1.77;0.80;;;;;;;9.75;81.07;101047.19;5073796;28;20449;-69
2021/04/01 05:25:05;;;;;;;1.23;1.13;;;;;;;9.83;81.25;101041.16;5073557;28;20927;-69
2021/04/01 05:27:35;;;;;;;2.40;1.23;;;;;;;9.84;81.20;101059.00;5073493;28;20480;-69
2021/04/01 05:30:01;;;;;;;4.10;1.47;;;;;;;9.85;81.22;101055.19;5073765;28;20544;-69
2021/04/01 05:32:30;;;;;;;1.93;1.00;;;;;;;10.01;80.85;101065.91;5073754;28;20484;-69
2021/04/01 05:34:57;;;;;;;2.10;1.33;;;;;;;10.10;80.25;101064.19;5073633;28;20520;-69
2021/04/01 05:37:26;;;;;;;5.73;2.53;;;;;;;10.22;79.87;101058.38;5073610;28;20465;-68
2021/04/01 05:39:53;;;;;;;2.27;1.80;;;;;;;10.30;80.11;101057.78;5073579;28;20457;-69
2021/04/01 05:42:22;;;;;;;4.43;2.00;;;;;;;10.35;79.55;101058.50;5073452;28;20812;-69
2021/04/01 05:44:50;;;;;;;2.00;1.57;;;;;;;10.40;79.54;101056.84;5073498;28;20495;-69
2021/04/01 05:47:25;;;;;;;3.40;1.13;;;;;;;10.47;79.50;101054.63;5073437;28;20473;-68
2021/04/01 05:50:02;;;;;;;1.47;1.33;;;;;;;10.52;79.96;101054.53;5073505;28;20425;-69
2021/04/01 05:58:52;;;;;;;1.10;0.77;;;;;;;10.75;77.22;101061.03;5073319;28;20452;-69
2021/04/01 06:04:18;;;;;;;4.63;1.63;;;;;;;10.87;76.66;101066.84;5067523;28;20626;-71
2021/04/01 06:06:51;;;;;;;3.43;1.57;;;;;;;10.90;75.90;101065.47;5072955;28;20958;-71
2021/04/01 06:09:20;;;;;;;2.67;1.40;;;;;;;10.96;76.07;101075.94;5073206;28;20465;-71
2021/04/01 06:11:51;;;;;;;1.20;1.03;;;;;;;11.02;75.56;101068.53;5072897;28;20947;-71
2021/04/01 06:14:38;;;;;;;5.30;1.53;;;;;;;11.04;75.63;101072.59;5073270;28;20426;-71
2021/04/01 06:17:06;;;;;;;1.37;0.90;;;;;;;11.14;76.82;101077.06;5073164;28;20433;-72
2021/04/01 06:19:34;;;;;;;1.73;1.27;;;;;;;11.24;75.93;101074.19;5072635;28;20437;-71
2021/04/01 06:22:05;;;;;;;0.60;0.60;;;;;;;11.36;76.29;101077.28;5073214;28;20453;-70
2021/04/01 06:24:33;;;;;;;0.87;0.87;;;;;;;11.47;76.05;101088.00;5072804;28;20465;-70
2021/04/01 06:27:02;;;;;;;2.57;2.17;;;;;;;11.59;74.53;101085.63;5073084;28;20438;-71
2021/04/01 06:29:30;;;;;;;1.30;1.20;;;;;;;11.70;73.78;101100.66;5098879;22;20521;-67
2021/04/01 06:32:01;;;;;;;0.83;0.83;;;;;;;11.86;72.31;101103.94;5073252;28;20510;-67
2021/04/01 06:34:33;;;;;;;2.67;1.10;;;;;;;12.02;71.85;101112.66;5073821;28;20957;-67
2021/04/01 06:36:59;;;;;;;3.27;1.97;;;;;;;12.12;71.87;101117.88;5073391;28;20449;-68
2021/04/01 06:39:25;;;;;;;1.63;1.50;;;;;;;12.22;70.74;101125.88;5073073;28;20456;-67
2021/04/01 06:42:16;;;;;;;2.73;1.30;;;;;;;12.29;69.40;101137.16;5072926;28;20524;-68
2021/04/01 06:44:51;;;;;;;1.80;1.43;;;;;;;12.38;68.48;101127.19;5073010;28;20473;-68
2021/04/01 06:47:21;;;;;;;2.00;0.90;;;;;;;12.45;68.24;101099.66;5072726;28;20793;-68
2021/04/01 06:50:04;;;;;;;4.27;1.80;;;;;;;12.54;69.06;101102.47;5073026;28;20472;-68
2021/04/01 06:52:36;;;;;;;4.00;1.20;;;;;;;12.67;69.50;101100.88;5073116;28;20451;-68
2021/04/01 06:55:11;;;;;;;1.43;1.33;;;;;;;12.78;68.63;101103.06;5073235;28;20433;-68
2021/04/01 06:57:59;;;;;;;5.13;2.17;;;;;;;12.88;67.79;101111.03;5073014;28;20436;-67
2021/04/01 07:00:54;;;;;;;1.40;1.00;;;;;;;12.97;66.74;101100.25;5072902;28;20429;-66
2021/04/01 07:03:25;;;;;;;3.27;1.30;;;;;;;13.02;65.96;101096.63;5072747;28;20584;-66
2021/04/01 07:05:54;;;;;;;2.57;1.70;;;;;;;13.03;65.17;101099.03;5072665;28;20430;-65
2021/04/01 07:08:35;;;;;;;3.13;2.27;;;;;;;13.08;65.87;101079.88;5072635;28;20496;-65
2021/04/01 07:11:04;;;;;;;2.20;2.00;;;;;;;13.13;64.63;101087.91;5072694;28;20414;-66
2021/04/01 07:13:39;;;;;;;5.80;1.87;;;;;;;13.15;65.01;101074.03;5072697;28;20442;-66
2021/04/01 07:16:16;;;;;;;3.37;1.43;;;;;;;13.13;65.84;101068.06;5072785;28;20473;-66
2021/04/01 07:19:21;;;;;;;2.57;2.33;;;;;;;13.26;66.39;101072.69;5072437;28;20473;-66
2021/04/01 07:35:56;;;;;;;2.73;1.80;;;;;;;13.92;63.93;101080.41;5076133;28;20417;-65
2021/04/01 07:46:48;;;;;;;3.23;1.73;;;;;;;14.05;65.33;101061.25;5070450;28;20480;-66
2021/04/01 07:49:17;;;;;;;5.57;2.53;;;;;;;14.24;65.54;101052.03;5055754;28;20497;-64
2021/04/01 07:54:43;;;;;;;3.40;2.23;;;;;;;14.58;62.78;101040.50;5054889;28;20970;-67
2021/04/01 07:57:28;;;;;;;3.27;1.63;;;;;;;14.67;60.74;101057.69;5075196;28;20434;-64
2021/04/01 08:00:02;;;;;;;3.97;1.43;;;;;;;14.68;61.23;101078.38;5075492;28;20512;-66
2021/04/01 08:02:48;;;;;;;1.93;1.80;;;;;;;14.75;61.76;101076.00;5074736;28;20524;-67
2021/04/01 08:05:21;;;;;;;2.70;1.57;;;;;;;14.84;60.37;101068.63;5068180;28;20482;-66
2021/04/01 08:07:50;;;;;;;2.20;1.67;;;;;;;14.93;60.02;101068.66;5073495;28;20491;-67
2021/04/01 08:10:18;;;;;;;9.63;3.77;;;;;;;15.07;59.51;101068.50;5075036;28;20533;-67
2021/04/01 08:12:49;;;;;;;1.87;1.77;;;;;;;15.32;59.72;101084.09;5075295;28;20453;-67
2021/04/01 08:15:17;;;;;;;3.33;2.10;;;;;;;15.55;58.59;101078.47;5075035;28;20438;-68
2021/04/01 08:17:50;;;;;;;2.80;1.83;;;;;;;15.82;58.09;101080.09;5074840;28;20993;-68
2021/04/01 08:20:20;;;;;;;2.50;1.43;;;;;;;16.03;58.44;101074.75;5074931;28;20467;-67
2021/04/01 08:22:57;;;;;;;7.40;2.60;;;;;;;16.10;57.28;101070.34;5075057;28;20445;-68
2021/04/01 08:25:24;;;;;;;3.27;2.47;;;;;;;16.05;56.50;101077.94;5074672;28;20441;-67
2021/04/01 08:28:08;;;;;;;3.73;1.60;;;;;;;16.00;56.60;101081.66;5074802;28;20477;-67
2021/04/01 08:33:29;;;;;;;2.77;1.90;;;;;;;15.93;56.84;101088.72;5074493;28;20429;-66
2021/04/01 08:35:58;;;;;;;6.63;1.80;;;;;;;15.92;57.72;101100.78;5074678;28;20409;-67
2021/04/01 08:38:25;;;;;;;4.20;2.37;;;;;;;15.90;58.25;101095.66;5074402;28;20472;-68
2021/04/01 08:40:52;;;;;;;5.63;3.20;;;;;;;15.92;57.36;101087.13;5074766;28;20446;-68
2021/04/01 08:43:37;;;;;;;3.10;2.27;;;;;;;15.93;57.46;101092.25;5074218;28;20557;-67
2021/04/01 08:46:21;;;;;;;4.17;1.87;;;;;;;15.94;57.37;101102.09;5074719;28;20445;-68
2021/04/01 08:49:00;;;;;;;4.20;1.70;;;;;;;15.88;56.88;101109.63;5073883;28;20468;-67
2021/04/01 08:51:46;;;;;;;4.80;2.37;;;;;;;15.87;57.01;101113.50;5074064;28;20440;-67
2021/04/01 08:54:15;;;;;;;5.00;1.63;;;;;;;15.89;57.18;101103.06;5074572;28;20418;-67
2021/04/01 08:56:48;;;;;;;4.73;2.47;;;;;;;15.82;57.27;101075.41;5074366;28;20811;-67
2021/04/01 08:59:23;;;;;;;6.53;3.37;;;;;;;15.85;58.96;101074.78;5074340;28;20574;-67
2021/04/01 09:01:51;;;;;;;4.03;2.80;;;;;;;15.74;61.40;101081.69;5063877;28;20487;-67
2021/04/01 09:04:23;;;;;;;7.30;3.60;;;;;;;15.57;63.01;101071.56;5074110;28;20495;-68
2021/04/01 09:06:52;;;;;;;7.10;3.10;;;;;;;15.54;67.23;101058.56;5072811;28;20939;-67
2021/04/01 09:09:24;;;;;;;7.40;3.30;;;;;;;15.56;65.89;101050.84;5073673;28;20457;-67
2021/04/01 09:11:53;;;;;;;4.10;2.40;;;;;;;15.66;66.81;101068.03;5074179;28;20422;-67
2021/04/01 09:14:29;;;;;;;7.20;4.07;;;;;;;15.75;66.19;101071.56;5074117;28;20446;-67
2021/04/01 09:17:07;;;;;;;2.57;2.07;;;;;;;15.81;66.60;101083.94;5073924;28;20445;-67
2021/04/01 09:19:35;;;;;;;4.33;2.23;;;;;;;15.87;67.64;101094.38;5073659;28;21005;-67
2021/04/01 09:22:01;;;;;;;6.73;2.40;;;;;;;15.87;65.68;101105.28;5074052;28;20473;-67
2021/04/01 09:24:29;;;;;;;3.20;2.50;;;;;;;15.87;65.53;101099.81;5073894;28;20487;-67
2021/04/01 09:26:56;;;;;;;5.33;3.43;;;;;;;15.91;65.10;101094.53;5073979;28;20863;-67
2021/04/01 09:29:22;;;;;;;3.53;2.17;;;;;;;15.93;63.52;101088.72;5073392;28;20993;-67
2021/04/01 09:31:57;;;;;;;6.33;2.63;;;;;;;15.91;63.09;101078.13;5073708;28;20442;-67
2021/04/01 09:34:24;;;;;;;4.30;2.07;;;;;;;15.96;62.42;101077.16;5073827;28;20425;-68
2021/04/01 09:36:53;;;;;;;3.43;2.40;;;;;;;16.01;61.29;101077.78;5073635;28;20442;-67
2021/04/01 09:39:30;;;;;;;5.97;2.93;;;;;;;16.21;61.26;101089.16;5073381;28;20478;-67
2021/04/01 09:42:03;;;;;;;6.37;2.70;;;;;;;16.33;59.83;101086.53;5073628;28;20499;-67
2021/04/01 09:44:29;;;;;;;3.30;1.80;;;;;;;16.51;59.46;101092.72;5073536;28;20465;-67
2021/04/01 09:46:59;;;;;;;3.63;1.67;;;;;;;16.67;57.59;101090.25;5073555;28;20488;-67
2021/04/01 09:49:31;;;;;;;3.90;2.10;;;;;;;16.80;57.91;101098.25;5073225;28;20997;-67
2021/04/01 09:51:59;;;;;;;4.13;2.30;;;;;;;16.94;57.52;101091.72;5073561;28;20433;-68
2021/04/01 09:54:26;;;;;;;4.90;2.70;;;;;;;17.00;56.25;101080.28;5072538;28;20495;-67
2021/04/01 09:56:58;;;;;;;6.13;3.00;;;;;;;17.16;55.54;101064.03;5073372;28;20442;-68
2021/04/01 09:59:36;;;;;;;7.53;2.73;;;;;;;17.38;56.42;101077.41;5073311;28;20468;-67
2021/04/01 10:02:06;;;;;;;13.63;3.83;;;;;;;17.60;55.47;101086.41;5073675;28;20440;-67
2021/04/01 10:04:34;;;;;;;6.93;3.13;;;;;;;17.67;55.45;101070.22;5073113;28;20534;-67
2021/04/01 10:07:13;;;;;;;6.97;3.60;;;;;;;17.65;55.09;101067.00;5073357;28;20483;-67
2021/04/01 10:09:49;;;;;;;6.83;2.80;;;;;;;17.40;54.62;101069.66;5073193;28;20493;-67
2021/04/01 10:12:18;;;;;;;3.90;2.30;;;;;;;17.50;54.85;101070.38;5073052;28;20902;-67
2021/04/01 10:14:54;;;;;;;5.73;2.83;;;;;;;17.62;53.85;101067.69;5073362;28;20817;-68
2021/04/01 10:17:22;;;;;;;9.83;3.30;;;;;;;17.72;53.50;101067.28;5072980;28;20421;-68
2021/04/01 10:19:50;;;;;;;7.90;4.97;;;;;;;17.69;52.93;101067.94;5073076;28;20461;-68
2021/04/01 10:22:22;;;;;;;6.57;3.50;;;;;;;17.75;53.09;101060.31;5073076;28;20441;-67
2021/04/01 10:25:09;;;;;;;7.83;2.57;;;;;;;17.75;51.89;101052.09;5071796;28;20485;-68
2021/04/01 10:27:40;;;;;;;6.07;2.37;;;;;;;17.56;52.18;101053.38;5072072;28;20449;-68
2021/04/01 10:30:08;;;;;;;3.57;2.20;;;;;;;17.50;52.73;101070.38;5071623;28;21009;-68
2021/04/01 10:32:40;;;;;;;8.33;3.20;;;;;;;17.48;52.91;101054.25;5073112;28;20520;-67
2021/04/01 10:35:08;;;;;;;6.27;3.27;;;;;;;17.54;52.47;101057.63;5072373;28;20934;-68
2021/04/01 10:37:35;;;;;;;7.53;3.43;;;;;;;17.52;53.11;101063.41;5072741;28;20441;-68
2021/04/01 10:40:06;;;;;;;5.57;3.20;;;;;;;17.53;53.54;101062.31;5073127;28;20441;-66
2021/04/01 10:42:34;;;;;;;5.17;2.50;;;;;;;17.52;53.34;101062.63;5072609;28;20461;-66
2021/04/01 10:45:01;;;;;;;8.67;4.10;;;;;;;17.62;53.33;101060.28;5072790;28;20477;-66
2021/04/01 10:47:52;;;;;;;11.23;4.90;;;;;;;17.69;52.60;101065.19;5066698;28;20443;-66
2021/04/01 10:50:19;;;;;;;6.63;3.23;;;;;;;17.62;51.94;101056.75;5063004;28;20822;-66
2021/04/01 10:52:47;;;;;;;5.60;2.80;;;;;;;17.64;52.86;101032.53;5072531;28;20444;-68
2021/04/01 10:55:14;;;;;;;9.17;3.50;;;;;;;17.67;54.86;101014.63;5071593;28;20947;-68
2021/04/01 10:57:40;;;;;;;5.20;1.70;;;;;;;17.68;55.45;101019.75;5072690;28;20441;-67
2021/04/01 11:00:13;;;;;;;11.23;4.63;;;;;;;17.73;54.82;100999.56;5071808;28;20962;-67
2021/04/01 11:02:41;;;;;;;8.97;2.77;;;;;;;17.85;57.45;100994.16;5072606;28;20422;-66
2021/04/01 11:05:13;;;;;;;7.13;2.00;;;;;;;17.96;56.21;100994.50;5073268;28;21082;-67
2021/04/01 11:07:47;;;;;;;7.67;2.27;;;;;;;18.07;53.56;100980.00;5076536;28;20452;-67
2021/04/01 11:10:24;;;;;;;5.20;2.57;;;;;;;18.39;53.78;100991.19;5076004;28;20814;-66
2021/04/01 11:12:52;;;;;;;8.70;3.10;;;;;;;18.62;52.39;100991.50;5076492;28;20444;-68
2021/04/01 11:15:26;;;;;;;5.00;2.47;;;;;;;18.74;50.66;100983.31;5060953;28;20434;-66
2021/04/01 11:18:01;;;;;;;5.30;3.03;;;;;;;18.79;50.98;100985.81;5076532;28;20460;-66
2021/04/01 11:20:30;;;;;;;10.33;2.27;;;;;;;18.59;48.39;100981.22;5056773;28;20487;-67
2021/04/01 11:23:01;;;;;;;4.27;2.47;;;;;;;18.31;48.36;100984.69;5056859;28;20441;-68
2021/04/01 11:25:28;;;;;;;7.20;3.40;;;;;;;18.13;48.54;100991.53;5075843;28;20888;-67
2021/04/01 11:27:55;;;;;;;8.10;3.47;;;;;;;18.02;49.06;100998.63;5075912;28;20564;-66
2021/04/01 11:30:21;;;;;;;15.00;4.50;;;;;;;18.07;49.68;101009.38;5075732;28;20477;-66
2021/04/01 11:32:52;;;;;;;8.47;4.23;;;;;;;18.26;50.47;101020.56;5076157;28;20451;-67
2021/04/01 11:35:22;;;;;;;5.70;3.60;;;;;;;18.34;49.83;101027.09;5075681;28;20526;-67
2021/04/01 11:37:52;;;;;;;9.20;2.67;;;;;;;18.35;49.70;101026.75;5075644;28;21007;-67
2021/04/01 11:40:19;;;;;;;4.50;2.33;;;;;;;18.41;50.79;101017.13;5075722;28;20449;-65
2021/04/01 11:42:53;;;;;;;9.90;4.50;;;;;;;18.41;50.22;101022.63;5075477;28;20454;-66
2021/04/01 11:45:29;;;;;;;6.07;2.80;;;;;;;18.34;51.37;101022.41;5075175;28;20994;-66
2021/04/01 11:47:56;;;;;;;9.87;3.07;;;;;;;18.40;50.80;101020.22;5075699;28;20480;-66
2021/04/01 11:50:22;;;;;;;9.80;4.67;;;;;;;18.46;50.28;101024.34;5076056;28;20479;-66
2021/04/01 11:52:54;;;;;;;12.23;3.30;;;;;;;18.59;49.83;101020.47;5075413;28;20470;-67
2021/04/01 11:55:21;;;;;;;7.80;2.83;;;;;;;18.86;48.66;101015.41;5096151;28;20482;-66
2021/04/01 11:57:47;;;;;;;6.87;2.70;;;;;;;18.98;48.99;101017.31;5084983;28;20472;-67
2021/04/01 12:00:18;;;;;;;13.50;3.20;;;;;;;18.87;46.96;101017.81;5075719;28;20452;-67
2021/04/01 12:02:51;;;;;;;7.20;3.77;;;;;;;18.82;46.30;101028.25;5075578;28;20444;-67
2021/04/01 12:05:18;;;;;;;5.87;2.93;;;;;;;18.86;46.14;101021.72;5075704;28;20528;-66
2021/04/01 12:07:44;;;;;;;4.10;2.20;;;;;;;18.78;46.50;101030.88;5075600;28;20490;-67
2021/04/01 12:10:13;;;;;;;7.27;3.47;;;;;;;18.85;46.32;101033.81;5075078;28;20502;-67
2021/04/01 12:12:39;;;;;;;5.93;3.13;;;;;;;18.82;46.35;101042.75;5074939;28;20523;-66
2021/04/01 12:15:06;;;;;;;10.30;2.90;;;;;;;18.77;46.30;101034.75;5075558;28;20441;-64
2021/04/01 12:17:35;;;;;;;9.63;4.10;;;;;;;18.66;46.32;101033.59;5074154;28;20445;-67
2021/04/01 12:20:04;;;;;;;7.13;3.10;;;;;;;18.57;46.75;101035.66;5075070;28;20441;-66
2021/04/01 12:22:32;;;;;;;7.13;3.80;;;;;;;18.53;47.62;101037.50;5074237;28;20445;-66
2021/04/01 12:24:59;;;;;;;13.80;5.00;;;;;;;18.81;47.05;101048.56;5074819;28;21067;-67
2021/04/01 12:27:29;;;;;;;12.27;4.00;;;;;;;18.99;45.06;101049.13;5074935;28;20457;-66
2021/04/01 12:29:56;;;;;;;11.57;5.10;;;;;;;19.10;45.56;101036.50;5098427;22;20501;-69